createdAt,value
2023-03-20T00:01:01.947Z,14.90
2023-03-20T00:03:30.174Z,14.80
2023-03-20T00:05:58.565Z,14.93
2023-03-20T00:08:29.701Z,14.90
2023-03-20T00:10:58.212Z,15.00
2023-03-20T00:13:29.319Z,13.93
2023-03-20T00:15:57.699Z,13.80
2023-03-20T00:18:26.777Z,14.80
2023-03-20T00:20:55.067Z,15.20
2023-03-20T00:23:23.353Z,15.27
2023-03-20T00:25:53.558Z,14.60
2023-03-20T00:28:41.148Z,15.17
2023-03-20T00:31:22.266Z,14.03
2023-03-20T00:33:50.519Z,15.13
2023-03-20T00:36:19.206Z,15.10
2023-03-20T00:38:47.519Z,14.97
2023-03-20T00:41:26.680Z,13.60
2023-03-20T00:43:57.653Z,13.90
2023-03-20T00:46:26.372Z,14.73
2023-03-20T00:48:56.069Z,14.23
2023-03-20T00:51:24.597Z,14.43
2023-03-20T00:53:53.184Z,20.50
2023-03-20T00:56:32.734Z,16.27
2023-03-20T00:59:03.405Z,16.90
2023-03-20T01:01:32.509Z,15.90
2023-03-20T01:04:01.008Z,14.10
2023-03-20T01:06:31.429Z,16.10
2023-03-20T01:09:00.199Z,16.60
2023-03-20T01:11:29.891Z,16.60
2023-03-20T01:13:58.769Z,15.03
2023-03-20T01:16:27.893Z,16.55
2023-03-20T01:18:56.990Z,16.57
2023-03-20T01:21:25.796Z,16.40
2023-03-20T01:23:53.946Z,16.23
2023-03-20T01:26:27.946Z,15.93
2023-03-20T01:28:57.736Z,16.77
2023-03-20T01:31:26.397Z,18.20
2023-03-20T01:33:54.665Z,17.43
2023-03-20T01:36:24.887Z,17.97
2023-03-20T01:38:56.942Z,17.60
2023-03-20T01:41:27.675Z,20.20
2023-03-20T01:43:57.420Z,17.93
2023-03-20T01:46:28.749Z,17.13
2023-03-20T01:49:10.250Z,16.60
2023-03-20T01:51:38.629Z,16.60
2023-03-20T01:54:16.466Z,15.70
2023-03-20T01:57:01.447Z,15.53
2023-03-20T01:59:35.903Z,17.07
2023-03-20T02:02:06.403Z,16.20
2023-03-20T02:04:38.012Z,17.43
2023-03-20T02:07:12.431Z,16.20
2023-03-20T02:09:48.366Z,16.93
2023-03-20T02:12:23.343Z,15.00
2023-03-20T02:14:54.068Z,16.30
2023-03-20T02:17:31.720Z,16.00
2023-03-20T02:20:12.766Z,14.90
2023-03-20T02:23:04.689Z,14.90
2023-03-20T02:26:13.002Z,16.27
2023-03-20T02:29:22.711Z,14.43
2023-03-20T02:32:32.452Z,14.23
2023-03-20T02:35:49.028Z,15.70
2023-03-20T02:38:38.691Z,14.20
2023-03-20T02:41:16.386Z,14.47
2023-03-20T02:43:49.763Z,13.70
2023-03-20T02:46:30.208Z,15.03
2023-03-20T02:49:04.457Z,15.10
2023-03-20T02:51:39.211Z,15.20
2023-03-20T02:54:14.844Z,14.90
2023-03-20T02:56:52.227Z,15.77
2023-03-20T02:59:28.145Z,17.23
2023-03-20T03:02:01.873Z,15.50
2023-03-20T03:04:34.093Z,16.27
2023-03-20T03:07:04.992Z,16.10
2023-03-20T03:09:38.008Z,16.67
2023-03-20T03:12:12.414Z,15.47
2023-03-20T03:14:44.253Z,15.57
2023-03-20T03:17:18.838Z,15.63
2023-03-20T03:19:49.294Z,16.47
2023-03-20T03:22:18.248Z,16.60
2023-03-20T03:24:49.757Z,17.80
2023-03-20T03:27:24.074Z,17.60
2023-03-20T03:29:54.994Z,17.60
2023-03-20T03:32:28.424Z,16.43
2023-03-20T03:34:57.828Z,16.83
2023-03-20T03:37:35.221Z,16.13
2023-03-20T03:40:15.741Z,16.53
2023-03-20T03:42:54.119Z,16.43
2023-03-20T03:45:30.752Z,17.53
2023-03-20T03:48:03.777Z,16.47
2023-03-20T03:50:37.188Z,16.43
2023-03-20T03:53:12.405Z,15.87
2023-03-20T03:55:46.260Z,17.93
2023-03-20T03:58:20.708Z,17.20
2023-03-20T04:00:52.048Z,16.03
2023-03-20T04:03:24.323Z,16.83
2023-03-20T04:05:55.707Z,17.90
2023-03-20T04:08:23.752Z,17.47
2023-03-20T04:10:53.403Z,17.23
2023-03-20T04:13:21.693Z,16.90
2023-03-20T04:15:50.052Z,15.90
2023-03-20T04:18:20.028Z,15.90
2023-03-20T04:20:49.849Z,16.40
2023-03-20T04:23:18.159Z,16.63
2023-03-20T04:25:46.618Z,16.93
2023-03-20T04:28:16.715Z,15.93
2023-03-20T04:31:05.754Z,16.23
2023-03-20T04:33:39.400Z,15.57
2023-03-20T04:36:22.812Z,16.30
2023-03-20T04:38:55.195Z,14.70
2023-03-20T04:41:25.405Z,15.40
2023-03-20T04:43:57.748Z,15.83
2023-03-20T04:46:26.494Z,15.80
2023-03-20T04:48:55.146Z,15.93
2023-03-20T04:51:23.884Z,15.13
2023-03-20T04:53:54.685Z,14.83
2023-03-20T04:56:23.840Z,15.57
2023-03-20T04:58:53.297Z,16.93
2023-03-20T05:01:24.990Z,17.57
2023-03-20T05:04:00.648Z,15.37
2023-03-20T05:06:33.067Z,16.50
2023-03-20T05:09:01.949Z,16.47
2023-03-20T05:11:32.470Z,17.47
2023-03-20T05:14:06.866Z,15.93
2023-03-20T05:17:05.982Z,17.00
2023-03-20T05:19:52.782Z,17.07
2023-03-20T05:22:37.202Z,16.50
2023-03-20T05:25:25.445Z,15.30
2023-03-20T05:28:17.263Z,16.37
2023-03-20T05:31:04.201Z,14.90
2023-03-20T05:34:12.841Z,14.67
2023-03-20T05:37:01.896Z,13.50
2023-03-20T05:39:45.460Z,13.60
2023-03-20T05:42:40.589Z,15.33
2023-03-20T05:45:29.194Z,14.97
2023-03-20T05:48:26.040Z,15.03
2023-03-20T05:51:20.719Z,13.77
2023-03-20T05:53:59.646Z,13.47
2023-03-20T05:56:42.852Z,14.17
2023-03-20T05:59:30.985Z,14.07
2023-03-20T06:02:34.839Z,15.33
2023-03-20T06:05:11.311Z,15.13
2023-03-20T06:07:49.238Z,15.90
2023-03-20T06:10:19.995Z,15.57
2023-03-20T06:12:50.157Z,17.13
2023-03-20T06:15:20.956Z,16.60
2023-03-20T06:17:56.866Z,15.73
2023-03-20T06:20:25.862Z,15.70
2023-03-20T06:22:55.587Z,16.23
2023-03-20T06:25:24.720Z,14.30
2023-03-20T06:27:53.221Z,15.37
2023-03-20T06:30:22.124Z,15.60
2023-03-20T06:32:51.876Z,18.88
2023-03-20T06:35:21.947Z,17.73
2023-03-20T06:37:52.227Z,15.97
2023-03-20T06:40:27.440Z,16.83
2023-03-20T06:42:56.964Z,18.60
2023-03-20T06:45:32.646Z,16.80
2023-03-20T06:48:02.865Z,16.23
2023-03-20T06:50:31.283Z,16.10
2023-03-20T06:53:00.601Z,15.67
2023-03-20T06:55:53.046Z,18.03
2023-03-20T06:58:22.626Z,16.77
2023-03-20T07:00:54.356Z,16.10
2023-03-20T07:03:22.773Z,17.47
2023-03-20T07:05:51.955Z,18.83
2023-03-20T07:08:21.790Z,16.90
2023-03-20T07:10:53.089Z,18.23
2023-03-20T07:13:21.336Z,17.50
2023-03-20T07:16:03.328Z,16.20
2023-03-20T07:18:37.161Z,15.50
2023-03-20T07:21:08.059Z,15.97
2023-03-20T07:23:37.247Z,15.70
2023-03-20T07:26:07.452Z,15.83
2023-03-20T07:28:36.194Z,16.23
2023-03-20T07:31:31.357Z,15.90
2023-03-20T07:34:16.238Z,16.33
2023-03-20T07:36:46.024Z,16.87
2023-03-20T07:39:19.115Z,16.00
2023-03-20T07:41:58.850Z,17.43
2023-03-20T07:44:39.345Z,18.00
2023-03-20T07:47:12.174Z,16.90
2023-03-20T07:49:41.587Z,17.07
2023-03-20T07:52:10.174Z,16.90
2023-03-20T07:54:38.479Z,18.10
2023-03-20T07:57:08.007Z,16.97
2023-03-20T07:59:36.639Z,17.47
2023-03-20T08:02:05.007Z,15.90
2023-03-20T08:04:33.228Z,16.80
2023-03-20T08:07:01.519Z,16.57
2023-03-20T08:09:29.767Z,16.73
2023-03-20T08:11:58.071Z,16.70
2023-03-20T08:14:27.760Z,16.50
2023-03-20T08:17:12.859Z,16.87
2023-03-20T08:19:42.535Z,18.80
2023-03-20T08:22:11.019Z,19.20
2023-03-20T08:24:39.311Z,17.17
2023-03-20T08:27:07.869Z,17.43
2023-03-20T08:29:37.635Z,16.67
2023-03-20T08:32:06.285Z,17.07
2023-03-20T08:34:34.871Z,16.77
2023-03-20T08:37:05.167Z,16.27
2023-03-20T08:39:34.483Z,17.27
2023-03-20T08:42:03.017Z,16.37
2023-03-20T08:44:31.400Z,17.57
2023-03-20T08:47:01.320Z,16.17
2023-03-20T08:49:30.838Z,19.10
2023-03-20T08:51:59.116Z,16.37
2023-03-20T08:54:27.555Z,16.60
2023-03-20T08:56:55.765Z,16.80
2023-03-20T08:59:23.976Z,17.00
2023-03-20T09:01:52.260Z,16.70
2023-03-20T09:04:21.889Z,16.10
2023-03-20T09:06:51.847Z,16.60
2023-03-20T09:09:21.719Z,17.53
2023-03-20T09:11:49.937Z,17.27
2023-03-20T09:14:18.087Z,15.40
2023-03-20T09:16:47.171Z,14.83
2023-03-20T09:19:15.705Z,15.13
2023-03-20T09:21:45.514Z,16.10
2023-03-20T09:24:13.671Z,16.50
2023-03-20T09:26:41.993Z,17.27
2023-03-20T09:29:10.612Z,15.80
2023-03-20T09:31:38.926Z,15.33
2023-03-20T09:34:07.146Z,14.80
2023-03-20T09:36:35.736Z,14.50
2023-03-20T09:39:06.073Z,15.23
2023-03-20T09:41:52.844Z,14.07
2023-03-20T09:44:36.459Z,13.50
2023-03-20T09:47:20.628Z,13.50
2023-03-20T09:50:00.811Z,14.23
2023-03-20T09:52:32.122Z,14.30
2023-03-20T09:55:05.121Z,13.27
2023-03-20T09:57:40.545Z,13.80
2023-03-20T10:00:14.040Z,16.13
2023-03-20T10:02:51.174Z,14.00
2023-03-20T10:05:24.202Z,13.87
2023-03-20T10:07:54.287Z,14.73
2023-03-20T10:10:31.693Z,14.17
2023-03-20T10:13:14.124Z,12.90
2023-03-20T10:15:50.199Z,12.60
2023-03-20T10:18:24.410Z,16.03
2023-03-20T10:20:59.049Z,12.70
2023-03-20T10:23:36.038Z,17.07
2023-03-20T10:26:11.586Z,13.40
2023-03-20T10:28:47.224Z,16.47
2023-03-20T10:31:27.519Z,14.37
2023-03-20T10:34:06.180Z,13.60
2023-03-20T10:36:46.272Z,14.50
2023-03-20T10:39:21.240Z,13.60
2023-03-20T10:41:55.025Z,12.33
2023-03-20T10:44:31.054Z,12.20
2023-03-20T10:47:01.865Z,12.00
2023-03-20T10:49:37.773Z,12.30
2023-03-20T10:52:12.264Z,13.20
2023-03-20T10:54:43.606Z,13.00
2023-03-20T10:57:19.314Z,15.80
2023-03-20T10:59:51.041Z,14.97
2023-03-20T11:02:21.908Z,12.00
2023-03-20T11:04:51.237Z,16.00
2023-03-20T11:07:25.533Z,12.80
2023-03-20T11:10:12.538Z,13.77
2023-03-20T11:12:44.369Z,14.00
2023-03-20T11:15:27.299Z,14.27
2023-03-20T11:17:57.609Z,15.37
2023-03-20T11:20:27.228Z,13.50
2023-03-20T11:23:00.799Z,14.73
2023-03-20T11:25:35.226Z,12.50
2023-03-20T11:28:35.033Z,11.27
2023-03-20T11:31:06.766Z,10.40
2023-03-20T11:33:40.591Z,9.80
2023-03-20T11:36:20.881Z,8.67
2023-03-20T11:38:50.876Z,10.67
2023-03-20T11:41:24.483Z,8.10
2023-03-20T11:43:54.720Z,8.10
2023-03-20T11:46:25.090Z,8.03
2023-03-20T11:49:22.431Z,8.03
2023-03-20T11:51:50.824Z,8.87
2023-03-20T11:54:22.766Z,8.43
2023-03-20T11:56:56.176Z,8.63
2023-03-20T11:59:27.972Z,8.63
2023-03-20T12:01:56.972Z,8.33
2023-03-20T12:04:30.697Z,7.90
2023-03-20T12:07:03.693Z,8.30
2023-03-20T12:09:38.504Z,9.03
2023-03-20T12:12:14.741Z,8.30
2023-03-20T12:14:50.326Z,11.40
2023-03-20T12:17:33.265Z,10.03
2023-03-20T12:20:06.760Z,8.10
2023-03-20T12:22:39.761Z,9.50
2023-03-20T12:25:20.164Z,10.80
2023-03-20T12:27:56.003Z,11.73
2023-03-20T12:30:33.139Z,10.67
2023-03-20T12:33:08.210Z,9.47
2023-03-20T12:35:39.751Z,8.33
2023-03-20T12:38:22.137Z,7.67
2023-03-20T12:40:54.454Z,9.00
2023-03-20T12:43:27.508Z,7.57
2023-03-20T12:46:04.852Z,8.97
2023-03-20T12:48:52.196Z,8.63
2023-03-20T12:51:27.518Z,8.23
2023-03-20T12:54:09.034Z,7.70
2023-03-20T12:56:55.719Z,7.70
2023-03-20T12:59:35.524Z,7.40
2023-03-20T13:02:19.864Z,7.50
2023-03-20T13:05:01.694Z,7.73
2023-03-20T13:07:45.292Z,7.93
2023-03-20T13:10:22.779Z,6.50
2023-03-20T13:13:01.913Z,7.07
2023-03-20T13:15:45.394Z,8.73
2023-03-20T13:18:21.302Z,8.70
2023-03-20T13:20:53.026Z,26.67
2023-03-20T13:23:27.433Z,11.73
2023-03-20T13:26:10.650Z,10.67
2023-03-20T13:28:46.422Z,17.27
2023-03-20T13:31:27.188Z,11.10
2023-03-20T13:34:03.802Z,9.13
2023-03-20T13:36:48.890Z,11.87
2023-03-20T13:39:22.316Z,11.23
2023-03-20T13:41:52.014Z,9.83
2023-03-20T13:44:24.151Z,17.03
2023-03-20T13:46:56.311Z,8.17
2023-03-20T13:49:34.146Z,8.87
2023-03-20T13:52:10.453Z,11.90
2023-03-20T13:54:55.145Z,9.77
2023-03-20T13:57:38.481Z,9.20
2023-03-20T14:00:17.498Z,10.47
2023-03-20T14:03:06.603Z,32.63
2023-03-20T14:05:40.115Z,8.20
2023-03-20T14:08:24.452Z,7.80
2023-03-20T14:11:06.436Z,8.23
2023-03-20T14:13:36.545Z,7.43
2023-03-20T14:16:09.382Z,6.50
2023-03-20T14:18:38.099Z,6.77
2023-03-20T14:21:14.199Z,7.10
2023-03-20T14:23:47.114Z,5.80
2023-03-20T14:26:23.999Z,5.50
2023-03-20T14:28:59.413Z,6.70
2023-03-20T14:31:32.940Z,6.87
2023-03-20T14:34:17.448Z,5.83
2023-03-20T14:36:53.090Z,6.53
2023-03-20T14:39:37.862Z,6.00
2023-03-20T14:42:21.662Z,5.43
2023-03-20T14:45:09.694Z,5.57
2023-03-20T14:47:47.117Z,8.47
2023-03-20T14:50:23.435Z,11.30
2023-03-20T14:53:04.054Z,6.90
2023-03-20T14:55:35.432Z,8.20
2023-03-20T14:58:05.935Z,5.77
2023-03-20T15:00:46.017Z,5.93
2023-03-20T15:03:18.072Z,5.93
2023-03-20T15:05:47.982Z,5.70
2023-03-20T15:08:23.987Z,6.33
2023-03-20T15:10:55.433Z,5.37
2023-03-20T15:13:25.933Z,6.40
2023-03-20T15:15:56.102Z,7.47
2023-03-20T15:18:26.154Z,7.10
2023-03-20T15:20:57.153Z,5.07
2023-03-20T15:23:27.154Z,7.83
2023-03-20T15:25:55.572Z,4.97
2023-03-20T15:28:26.605Z,5.20
2023-03-20T15:30:58.417Z,38.07
2023-03-20T15:33:29.710Z,7.43
2023-03-20T15:35:58.158Z,7.63
2023-03-20T15:38:32.870Z,4.27
2023-03-20T15:41:01.574Z,13.60
2023-03-20T15:43:29.881Z,8.50
2023-03-20T15:46:16.889Z,5.00
2023-03-20T15:48:49.589Z,12.70
2023-03-20T15:51:18.968Z,6.07
2023-03-20T15:53:50.093Z,12.60
2023-03-20T15:56:20.250Z,4.30
2023-03-20T15:58:52.013Z,3.20
2023-03-20T16:01:22.095Z,4.43
2023-03-20T16:03:51.361Z,3.40
2023-03-20T16:06:22.061Z,2.53
2023-03-20T16:09:01.157Z,3.17
2023-03-20T16:11:38.498Z,2.50
2023-03-20T16:14:08.382Z,3.00
2023-03-20T16:16:37.730Z,6.50
2023-03-20T16:19:07.723Z,2.30
2023-03-20T16:21:41.126Z,2.13
2023-03-20T16:24:18.793Z,5.73
2023-03-20T16:26:52.069Z,2.83
2023-03-20T16:29:22.675Z,11.13
2023-03-20T16:32:04.061Z,2.53
2023-03-20T16:34:34.774Z,8.17
2023-03-20T16:37:08.112Z,1.83
2023-03-20T16:39:37.611Z,4.57
2023-03-20T16:42:23.723Z,1.80
2023-03-20T16:44:56.638Z,1.93
2023-03-20T16:47:34.044Z,1.73
2023-03-20T16:50:17.436Z,1.77
2023-03-20T16:52:49.078Z,1.93
2023-03-20T16:55:25.593Z,2.00
2023-03-20T16:57:58.516Z,1.80
2023-03-20T17:00:31.287Z,1.93
2023-03-20T17:03:13.982Z,1.80
2023-03-20T17:05:50.161Z,2.20
2023-03-20T17:08:24.359Z,2.10
2023-03-20T17:10:58.173Z,2.40
2023-03-20T17:13:26.923Z,2.13
2023-03-20T17:15:56.390Z,2.27
2023-03-20T17:18:24.814Z,2.40
2023-03-20T17:20:53.113Z,2.07
2023-03-20T17:23:23.352Z,2.10
2023-03-20T17:25:54.558Z,2.23
2023-03-20T17:28:30.080Z,2.40
2023-03-20T17:31:00.164Z,2.37
2023-03-20T17:33:29.820Z,2.93
2023-03-20T17:35:58.942Z,4.97
2023-03-20T17:38:27.538Z,3.90
2023-03-20T17:40:57.180Z,4.10
2023-03-20T17:43:25.666Z,6.10
2023-03-20T17:45:54.731Z,6.03
2023-03-20T17:48:23.798Z,9.60
2023-03-20T17:50:52.294Z,10.10
2023-03-20T17:53:24.003Z,6.97
2023-03-20T17:55:52.614Z,5.00
2023-03-20T17:58:24.412Z,5.87
2023-03-20T18:00:54.239Z,4.83
2023-03-20T18:03:23.009Z,4.27
2023-03-20T18:05:52.469Z,4.33
2023-03-20T18:08:23.358Z,4.40
2023-03-20T18:10:53.621Z,3.93
2023-03-20T18:13:25.139Z,4.20
2023-03-20T18:15:55.822Z,5.00
2023-03-20T18:18:24.586Z,5.27
2023-03-20T18:20:54.924Z,8.60
2023-03-20T18:23:23.205Z,10.20
2023-03-20T18:25:51.497Z,18.77
2023-03-20T18:28:23.071Z,19.90
2023-03-20T18:30:53.803Z,11.50
2023-03-20T18:33:25.241Z,7.30
2023-03-20T18:35:54.015Z,4.90
2023-03-20T18:38:25.819Z,4.93
2023-03-20T18:40:54.140Z,4.90
2023-03-20T18:43:22.432Z,5.20
2023-03-20T18:45:52.210Z,5.20
2023-03-20T18:48:20.572Z,5.60
2023-03-20T18:50:51.123Z,5.67
2023-03-20T18:53:20.066Z,6.00
2023-03-20T18:55:48.235Z,4.67
2023-03-20T18:58:23.226Z,4.90
2023-03-20T19:00:54.126Z,5.37
2023-03-20T19:03:24.669Z,5.90
2023-03-20T19:05:54.287Z,5.30
2023-03-20T19:08:23.198Z,5.60
2023-03-20T19:10:51.961Z,5.50
2023-03-20T19:13:22.022Z,5.37
2023-03-20T19:15:50.852Z,4.80
2023-03-20T19:18:22.423Z,5.47
2023-03-20T19:20:51.916Z,4.97
2023-03-20T19:23:21.440Z,4.60
2023-03-20T19:25:51.888Z,5.50
2023-03-20T19:28:34.588Z,5.27
2023-03-20T19:31:08.103Z,5.00
2023-03-20T19:33:38.744Z,5.00
2023-03-20T19:36:09.543Z,5.03
2023-03-20T19:38:38.300Z,8.93
2023-03-20T19:41:08.846Z,8.20
2023-03-20T19:43:51.492Z,10.30
2023-03-20T19:46:38.167Z,8.87
2023-03-20T19:49:18.842Z,9.77
2023-03-20T19:51:48.240Z,32.13
2023-03-20T19:54:17.058Z,36.00
2023-03-20T19:56:45.689Z,28.10
2023-03-20T19:59:16.537Z,12.00
2023-03-20T20:01:46.789Z,10.93
2023-03-20T20:04:16.989Z,9.70
2023-03-20T20:06:47.529Z,11.03
2023-03-20T20:09:16.630Z,12.60
2023-03-20T20:11:45.322Z,10.70
2023-03-20T20:14:15.164Z,11.67
2023-03-20T20:16:45.675Z,13.27
2023-03-20T20:19:14.596Z,15.27
2023-03-20T20:22:19.597Z,21.63
2023-03-20T20:24:32.758Z,18.67
2023-03-20T20:27:16.302Z,46.57
2023-03-20T20:29:49.239Z,13.10
2023-03-20T20:32:18.293Z,13.30
2023-03-20T20:38:28.057Z,11.03
2023-03-20T20:40:31.051Z,11.27
2023-03-20T20:43:01.603Z,11.10
2023-03-20T20:45:32.163Z,9.60
2023-03-20T20:48:01.394Z,10.10
2023-03-20T20:50:31.317Z,9.60
2023-03-20T20:53:01.201Z,8.23
2023-03-20T20:55:29.835Z,7.47
2023-03-20T20:57:58.607Z,8.07
2023-03-20T21:00:45.337Z,8.17
2023-03-20T21:03:16.068Z,8.47
2023-03-20T21:05:44.382Z,9.70
2023-03-20T21:08:16.484Z,8.40
2023-03-20T21:10:46.180Z,8.87
2023-03-20T21:13:14.531Z,8.33
2023-03-20T21:15:43.372Z,8.27
2023-03-20T21:18:11.850Z,7.80
2023-03-20T21:20:40.922Z,9.00
2023-03-20T21:23:09.372Z,9.07
2023-03-20T21:25:41.143Z,8.83
2023-03-20T21:28:11.577Z,9.70
2023-03-20T21:30:51.032Z,8.23
2023-03-20T21:33:25.029Z,9.03
2023-03-20T21:35:54.337Z,9.23
2023-03-20T21:39:05.921Z,9.17
2023-03-20T21:41:12.664Z,9.20
2023-03-20T21:43:41.252Z,12.03
2023-03-20T21:49:47.120Z,10.33
2023-03-20T21:52:45.828Z,9.70
2023-03-20T22:03:10.359Z,12.80
2023-03-20T22:06:37.266Z,9.77
2023-03-20T22:09:30.841Z,9.10
2023-03-20T22:14:58.474Z,7.43
2023-03-20T22:20:42.279Z,6.50
2023-03-20T22:34:30.786Z,6.73
2023-03-20T22:42:49.676Z,6.90
2023-03-20T22:45:09.637Z,6.90
2023-03-20T22:47:40.644Z,7.10
2023-03-20T22:50:10.220Z,7.00
2023-03-20T22:52:48.574Z,6.80
2023-03-20T22:55:18.734Z,7.30
2023-03-20T22:58:03.700Z,6.97
2023-03-20T23:00:34.280Z,7.43
2023-03-20T23:03:19.426Z,7.87
2023-03-20T23:05:52.073Z,8.00
2023-03-20T23:08:20.276Z,8.40
2023-03-20T23:10:50.790Z,8.33
2023-03-20T23:13:20.534Z,7.83
2023-03-20T23:15:50.728Z,8.50
2023-03-20T23:18:20.965Z,9.13
2023-03-20T23:20:49.558Z,7.83
2023-03-20T23:23:17.968Z,8.00
2023-03-20T23:25:47.484Z,8.27
2023-03-20T23:28:16.000Z,8.17
2023-03-20T23:30:49.854Z,8.97
2023-03-20T23:33:26.445Z,8.53
2023-03-20T23:35:58.432Z,8.10
2023-03-20T23:38:33.875Z,8.57
2023-03-20T23:41:02.252Z,8.00
2023-03-20T23:43:30.991Z,7.90
2023-03-20T23:45:59.406Z,8.40
2023-03-20T23:48:29.124Z,7.40
2023-03-20T23:50:57.312Z,8.60
2023-03-20T23:53:25.649Z,8.67
2023-03-20T23:55:56.293Z,8.47
2023-03-20T23:58:26.453Z,8.00
